createdAt,value
2024-02-10T00:02:35.230Z,100.00
2024-02-10T00:06:40.750Z,100.00
2024-02-10T00:10:45.057Z,100.00
2024-02-10T00:14:46.471Z,100.00
2024-02-10T00:18:47.931Z,100.00
2024-02-10T00:22:49.477Z,100.00
2024-02-10T00:26:50.830Z,100.00
2024-02-10T00:30:56.162Z,100.00
2024-02-10T00:34:58.002Z,100.00
2024-02-10T00:38:59.408Z,100.00
2024-02-10T00:43:01.412Z,100.00
2024-02-10T00:47:10.636Z,100.00
2024-02-10T00:51:11.965Z,100.00
2024-02-10T00:55:13.580Z,100.00
2024-02-10T00:59:18.773Z,100.00
2024-02-10T01:03:20.176Z,100.00
2024-02-10T01:07:21.600Z,100.00
2024-02-10T01:11:25.768Z,100.00
2024-02-10T01:15:31.474Z,100.00
2024-02-10T01:19:34.246Z,100.00
2024-02-10T01:23:35.706Z,100.00
2024-02-10T01:27:37.042Z,100.00
2024-02-10T01:31:38.412Z,100.00
2024-02-10T01:35:39.822Z,100.00
2024-02-10T01:39:41.198Z,100.00
2024-02-10T01:43:43.427Z,100.00
2024-02-10T01:47:45.997Z,100.00
2024-02-10T01:51:47.393Z,100.00
2024-02-10T01:55:48.861Z,100.00
2024-02-10T01:59:50.326Z,100.00
2024-02-10T02:03:52.364Z,100.00
2024-02-10T02:07:54.880Z,100.00
2024-02-10T02:11:56.352Z,100.00
2024-02-10T02:16:01.632Z,100.00
2024-02-10T02:20:03.426Z,100.00
2024-02-10T02:24:04.913Z,100.00
2024-02-10T02:28:06.352Z,100.00
2024-02-10T02:32:10.008Z,100.00
2024-02-10T02:36:11.555Z,100.00
2024-02-10T02:40:13.925Z,100.00
2024-02-10T02:44:18.278Z,100.00
2024-02-10T02:48:19.898Z,100.00
2024-02-10T02:52:21.452Z,100.00
2024-02-10T02:56:22.809Z,100.00
2024-02-10T03:00:24.178Z,100.00
2024-02-10T03:04:25.623Z,100.00
2024-02-10T03:08:28.679Z,100.00
2024-02-10T03:12:32.242Z,100.00
2024-02-10T03:16:34.415Z,100.00
2024-02-10T03:20:36.217Z,100.00
2024-02-10T03:24:37.679Z,100.00
2024-02-10T03:28:39.270Z,100.00
2024-02-10T03:32:40.734Z,100.00
2024-02-10T03:36:42.181Z,100.00
2024-02-10T03:40:43.593Z,100.00
2024-02-10T03:44:44.926Z,100.00
2024-02-10T03:48:47.868Z,100.00
2024-02-10T03:52:49.586Z,100.00
2024-02-10T03:56:51.945Z,100.00
2024-02-10T04:00:54.940Z,100.00
2024-02-10T04:04:56.936Z,100.00
2024-02-10T04:08:59.201Z,100.00
2024-02-10T04:13:01.479Z,100.00
2024-02-10T04:17:02.968Z,100.00
2024-02-10T04:21:05.557Z,100.00
2024-02-10T04:25:11.260Z,100.00
2024-02-10T04:29:17.680Z,100.00
2024-02-10T04:33:22.299Z,100.00
2024-02-10T04:37:23.750Z,100.00
2024-02-10T04:41:25.153Z,100.00
2024-02-10T04:45:27.336Z,100.00
2024-02-10T04:49:28.864Z,100.00
2024-02-10T04:53:30.269Z,100.00
2024-02-10T04:57:31.794Z,100.00
2024-02-10T05:01:34.189Z,100.00
2024-02-10T05:05:35.743Z,100.00
2024-02-10T05:09:37.179Z,100.00
2024-02-10T05:13:39.406Z,100.00
2024-02-10T05:17:44.012Z,100.00
2024-02-10T05:21:45.410Z,100.00
2024-02-10T05:25:46.842Z,100.00
2024-02-10T05:29:48.478Z,100.00
2024-02-10T05:33:50.048Z,100.00
2024-02-10T05:37:55.371Z,100.00
2024-02-10T05:42:00.803Z,100.00
2024-02-10T05:46:08.293Z,100.00
2024-02-10T05:50:16.651Z,100.00
2024-02-10T05:54:18.056Z,100.00
2024-02-10T05:58:24.126Z,100.00
2024-02-10T06:02:25.521Z,100.00
2024-02-10T06:06:26.918Z,100.00
2024-02-10T06:10:28.409Z,100.00
2024-02-10T06:14:30.140Z,100.00
2024-02-10T06:18:32.108Z,100.00
2024-02-10T06:22:36.513Z,100.00
2024-02-10T06:26:38.423Z,100.00
2024-02-10T06:30:39.981Z,100.00
2024-02-10T06:34:43.647Z,100.00
2024-02-10T06:38:45.984Z,100.00
2024-02-10T06:42:50.087Z,100.00
2024-02-10T06:46:51.693Z,100.00
2024-02-10T06:50:55.556Z,100.00
2024-02-10T06:54:56.933Z,100.00
2024-02-10T06:59:00.276Z,100.00
2024-02-10T07:03:01.766Z,100.00
2024-02-10T07:07:04.235Z,100.00
2024-02-10T07:11:05.631Z,100.00
2024-02-10T07:15:07.105Z,100.00
2024-02-10T07:19:09.181Z,100.00
2024-02-10T07:23:10.609Z,100.00
2024-02-10T07:27:18.147Z,100.00
2024-02-10T07:31:19.529Z,100.00
2024-02-10T07:35:23.902Z,100.00
2024-02-10T07:39:26.672Z,100.00
2024-02-10T07:43:29.107Z,100.00
2024-02-10T07:47:30.778Z,100.00
2024-02-10T07:51:33.167Z,100.00
2024-02-10T07:55:36.899Z,100.00
2024-02-10T07:59:40.097Z,100.00
2024-02-10T08:03:42.516Z,100.00
2024-02-10T08:07:44.284Z,100.00
2024-02-10T08:11:45.811Z,100.00
2024-02-10T08:15:47.658Z,100.00
2024-02-10T08:19:52.482Z,100.00
2024-02-10T08:23:58.500Z,100.00
2024-02-10T08:28:01.027Z,100.00
2024-02-10T08:32:03.641Z,100.00
2024-02-10T08:36:06.183Z,100.00
2024-02-10T08:40:10.789Z,100.00
2024-02-10T08:44:12.231Z,100.00
2024-02-10T08:50:00.493Z,100.00
2024-02-10T08:54:52.914Z,100.00
2024-02-10T08:58:54.461Z,100.00
2024-02-10T09:02:56.883Z,100.00
2024-02-10T09:06:59.203Z,100.00
2024-02-10T09:11:00.883Z,100.00
2024-02-10T09:15:02.454Z,100.00
2024-02-10T09:19:04.088Z,100.00
2024-02-10T09:23:05.745Z,100.00
2024-02-10T09:27:10.242Z,100.00
2024-02-10T09:31:17.920Z,100.00
2024-02-10T09:35:30.920Z,100.00
2024-02-10T09:39:38.186Z,100.00
2024-02-10T09:43:41.485Z,100.00
2024-02-10T09:47:46.555Z,100.00
2024-02-10T09:51:48.052Z,100.00
2024-02-10T09:55:55.928Z,100.00
2024-02-10T10:00:01.457Z,100.00
2024-02-10T10:04:03.088Z,100.00
2024-02-10T10:08:10.245Z,100.00
2024-02-10T10:12:11.956Z,100.00
2024-02-10T10:16:13.867Z,100.00
2024-02-10T10:20:15.447Z,100.00
2024-02-10T10:24:19.697Z,100.00
2024-02-10T10:28:21.313Z,100.00
2024-02-10T10:32:26.084Z,100.00
2024-02-10T10:36:29.966Z,100.00
2024-02-10T10:40:33.778Z,100.00
2024-02-10T10:44:36.307Z,100.00
2024-02-10T10:48:38.500Z,100.00
2024-02-10T10:52:43.688Z,100.00
2024-02-10T10:56:46.944Z,100.00
2024-02-10T11:00:52.072Z,100.00
2024-02-10T11:05:24.965Z,100.00
2024-02-10T11:09:29.688Z,100.00
2024-02-10T11:13:32.553Z,100.00
2024-02-10T11:17:36.237Z,100.00
2024-02-10T11:21:40.092Z,100.00
2024-02-10T11:25:42.758Z,100.00
2024-02-10T11:29:45.901Z,100.00
2024-02-10T11:33:47.658Z,96.18
2024-02-10T11:37:51.491Z,96.51
2024-02-10T11:41:57.960Z,97.05
2024-02-10T11:45:59.522Z,100.00
2024-02-10T11:50:01.057Z,95.60
2024-02-10T11:54:03.607Z,89.88
2024-02-10T11:58:05.356Z,88.73
2024-02-10T12:02:07.541Z,89.10
2024-02-10T12:06:11.930Z,85.88
2024-02-10T12:10:13.614Z,81.14
2024-02-10T12:14:16.559Z,86.37
2024-02-10T12:18:18.651Z,85.21
2024-02-10T12:22:22.589Z,88.60
2024-02-10T12:26:26.788Z,85.56
2024-02-10T12:30:28.277Z,85.27
2024-02-10T12:34:29.820Z,83.49
2024-02-10T12:38:31.518Z,78.64
2024-02-10T12:42:33.076Z,70.19
2024-02-10T12:46:34.612Z,67.68
2024-02-10T12:50:36.214Z,63.34
2024-02-10T12:54:37.810Z,64.07
2024-02-10T12:58:39.389Z,59.45
2024-02-10T13:02:40.911Z,60.02
2024-02-10T13:06:42.515Z,60.87
2024-02-10T13:10:46.313Z,58.42
2024-02-10T13:14:47.920Z,57.54
2024-02-10T13:18:49.678Z,55.13
2024-02-10T13:22:53.271Z,53.98
2024-02-10T13:26:54.772Z,51.89
2024-02-10T13:30:56.745Z,51.23
2024-02-10T13:35:14.812Z,51.29
2024-02-10T13:39:39.643Z,50.86
2024-02-10T13:44:00.223Z,53.43
2024-02-10T13:48:20.066Z,53.94
2024-02-10T13:52:40.234Z,51.69
2024-02-10T13:57:00.812Z,49.00
2024-02-10T14:01:02.729Z,52.38
2024-02-10T14:05:05.797Z,51.68
2024-02-10T14:09:12.464Z,55.95
2024-02-10T14:13:18.406Z,60.83
2024-02-10T14:17:20.535Z,62.17
2024-02-10T14:21:35.525Z,64.46
2024-02-10T14:25:39.918Z,62.53
2024-02-10T14:29:44.757Z,64.69
2024-02-10T14:33:56.364Z,60.83
2024-02-10T14:38:14.280Z,62.40
2024-02-10T14:42:15.851Z,60.11
2024-02-10T14:46:17.431Z,64.39
2024-02-10T14:50:19.766Z,62.84
2024-02-10T14:54:22.342Z,66.59
2024-02-10T14:58:23.966Z,70.80
2024-02-10T15:02:30.093Z,75.42
2024-02-10T15:06:35.042Z,79.36
2024-02-10T15:10:41.808Z,82.71
2024-02-10T15:14:44.019Z,81.06
2024-02-10T15:18:52.027Z,78.79
2024-02-10T15:22:54.025Z,75.71
2024-02-10T15:26:55.669Z,79.00
2024-02-10T15:30:58.474Z,79.37
2024-02-10T15:35:02.938Z,83.49
2024-02-10T15:39:06.933Z,89.17
2024-02-10T15:43:09.072Z,87.79
2024-02-10T15:47:10.886Z,86.44
2024-02-10T15:51:13.229Z,87.86
2024-02-10T15:55:18.539Z,94.11
2024-02-10T15:59:22.055Z,94.43
2024-02-10T16:03:23.602Z,100.00
2024-02-10T16:07:25.401Z,100.00
2024-02-10T16:11:30.340Z,100.00
2024-02-10T16:15:32.713Z,100.00
2024-02-10T16:19:40.335Z,99.52
2024-02-10T16:23:41.943Z,100.00
2024-02-10T16:27:43.455Z,100.00
2024-02-10T16:31:45.623Z,100.00
2024-02-10T16:35:47.268Z,98.64
2024-02-10T16:39:49.043Z,97.90
2024-02-10T16:43:50.715Z,100.00
2024-02-10T16:47:54.322Z,100.00
2024-02-10T16:51:55.840Z,100.00
2024-02-10T16:55:59.318Z,100.00
2024-02-10T17:00:00.940Z,100.00
2024-02-10T17:04:06.046Z,100.00
2024-02-10T17:08:09.437Z,100.00
2024-02-10T17:12:11.467Z,100.00
2024-02-10T17:16:13.572Z,100.00
2024-02-10T17:20:16.019Z,100.00
2024-02-10T17:24:17.735Z,100.00
2024-02-10T17:28:31.288Z,100.00
2024-02-10T17:32:33.985Z,100.00
2024-02-10T17:36:35.650Z,100.00
2024-02-10T17:40:37.577Z,100.00
2024-02-10T17:44:40.242Z,100.00
2024-02-10T17:48:43.071Z,100.00
2024-02-10T17:52:46.094Z,100.00
2024-02-10T17:56:49.367Z,100.00
2024-02-10T18:00:52.584Z,100.00
2024-02-10T18:04:54.354Z,100.00
2024-02-10T18:08:55.857Z,100.00
2024-02-10T18:13:00.741Z,100.00
2024-02-10T18:17:02.347Z,100.00
2024-02-10T18:21:05.291Z,100.00
2024-02-10T18:25:08.238Z,100.00
2024-02-10T18:29:09.871Z,100.00
2024-02-10T18:33:11.976Z,100.00
2024-02-10T18:37:15.823Z,100.00
2024-02-10T18:41:18.848Z,100.00
2024-02-10T18:45:21.240Z,100.00
2024-02-10T18:49:25.723Z,100.00
2024-02-10T18:53:27.753Z,100.00
2024-02-10T18:57:29.962Z,100.00
2024-02-10T19:01:33.150Z,100.00
2024-02-10T19:05:36.403Z,100.00
2024-02-10T19:09:38.353Z,100.00
2024-02-10T19:13:39.882Z,100.00
2024-02-10T19:17:50.731Z,100.00
2024-02-10T19:21:52.666Z,100.00
2024-02-10T19:25:54.592Z,100.00
2024-02-10T19:29:56.612Z,100.00
2024-02-10T19:34:01.159Z,100.00
2024-02-10T19:38:02.950Z,100.00
2024-02-10T19:42:07.203Z,100.00
2024-02-10T19:46:11.535Z,100.00
2024-02-10T19:50:13.399Z,100.00
2024-02-10T19:54:15.750Z,100.00
2024-02-10T19:58:18.803Z,100.00
2024-02-10T20:02:21.945Z,100.00
2024-02-10T20:06:23.812Z,100.00
2024-02-10T20:10:25.574Z,100.00
2024-02-10T20:14:27.043Z,100.00
2024-02-10T20:18:28.693Z,100.00
2024-02-10T20:22:30.957Z,100.00
2024-02-10T20:26:32.583Z,100.00
2024-02-10T20:30:34.191Z,100.00
2024-02-10T20:34:36.011Z,100.00
2024-02-10T20:38:38.318Z,100.00
2024-02-10T20:42:40.408Z,100.00
2024-02-10T20:46:42.540Z,100.00
2024-02-10T20:50:45.663Z,100.00
2024-02-10T20:54:49.736Z,100.00
2024-02-10T20:58:51.609Z,100.00
2024-02-10T21:02:53.460Z,100.00
2024-02-10T21:06:55.437Z,100.00
2024-02-10T21:10:57.293Z,100.00
2024-02-10T21:15:01.501Z,100.00
2024-02-10T21:19:03.063Z,100.00
2024-02-10T21:23:05.067Z,100.00
2024-02-10T21:27:08.043Z,100.00
2024-02-10T21:31:09.780Z,100.00
2024-02-10T21:35:12.027Z,100.00
2024-02-10T21:39:16.904Z,100.00
2024-02-10T21:43:18.707Z,100.00
2024-02-10T21:47:23.307Z,100.00
2024-02-10T21:51:24.985Z,100.00
2024-02-10T21:55:26.974Z,100.00
2024-02-10T21:59:28.853Z,100.00
2024-02-10T22:03:30.498Z,100.00
2024-02-10T22:07:34.829Z,100.00
2024-02-10T22:11:37.126Z,100.00
2024-02-10T22:15:38.688Z,100.00
2024-02-10T22:19:40.391Z,100.00
2024-02-10T22:23:42.954Z,100.00
2024-02-10T22:27:45.324Z,100.00
2024-02-10T22:31:49.277Z,100.00
2024-02-10T22:35:53.615Z,100.00
2024-02-10T22:39:55.642Z,100.00
2024-02-10T22:43:57.174Z,100.00
2024-02-10T22:47:58.818Z,100.00
2024-02-10T22:52:00.365Z,100.00
2024-02-10T22:56:08.665Z,100.00
2024-02-10T23:00:39.908Z,100.00
2024-02-10T23:04:41.476Z,100.00
2024-02-10T23:08:44.400Z,100.00
2024-02-10T23:12:50.736Z,100.00
2024-02-10T23:16:55.204Z,100.00
2024-02-10T23:21:01.944Z,100.00
2024-02-10T23:25:05.945Z,100.00
2024-02-10T23:29:07.539Z,100.00
2024-02-10T23:33:09.568Z,100.00
2024-02-10T23:37:11.252Z,100.00
2024-02-10T23:41:14.558Z,100.00
2024-02-10T23:45:18.393Z,100.00
2024-02-10T23:49:19.999Z,100.00
2024-02-10T23:53:23.206Z,100.00
2024-02-10T23:57:25.268Z,100.00
